PWSweather.com
Personal Weather Stations
Station Observations
RADILLY
Mcmurray, PA 15317

Mcmurray, PA 15317

Lat: 40.288, Lon: -80.095

Elevation: 1061

Station Type: Ambient WS-2080

http://dillys.org/wx/

Latest ConditionsUpdated 6:15:00 PM EST Sunday, Dec 16, 2018
Currently Today's Max Today's Min Today's Average
Temperature 42.6°F5.9°C 44.4°F6.9°C 41.0°F5.0°C 42.2°F5.7°C
Dew Point 39.3°F4.1°C 41.7°F5.4°C 38.3°F3.5°C 39.4°F4.1°C
Winds 1.6 mph WSW2.6 kmh WSW 3.8 mph -6.1 kmh - - 1.0 mph 1.6 kmh
Wind Gusts 3.8 mph6.1 kmh 11.4 mph18.3 kmh - -
Humidity 88% 91% 84% 90%
Pressure 30.02 in1016.6 mb 30.02 in1016.6 mb 29.93 in1013.5 mb -
Precipitation - 0.45 in11.4 mm - -
Hour Temp Dew Point Humidity Winds Wind Gusts Pressure Precip Precip Rate Daily Precip Total
06:15 PM 42.6°F5.9°C 39.3°F4.1°C 88% 1.6 mph WSW2.6 kmh WSW 3.8 mph6.1 kmh 30.02 in1016.6 mb 0.00 in0.0 mm 0.00 in0.0 mm 0.45 in11.4 mm
06:00 PM 42.6°F5.9°C 39.3°F4.1°C 88% 1.6 mph W2.6 kmh W 3.8 mph6.1 kmh 30.01 in1016.3 mb 0.00 in0.0 mm 0.00 in0.0 mm 0.45 in11.4 mm
05:45 PM 42.4°F5.8°C 39.1°F3.9°C 88% 1.6 mph SW2.6 kmh SW 3.1 mph5.0 kmh 30.01 in1016.3 mb 0.00 in0.0 mm 0.00 in0.0 mm 0.45 in11.4 mm
05:30 PM 42.4°F5.8°C 39.1°F3.9°C 88% 1.6 mph WSW2.6 kmh WSW 3.1 mph5.0 kmh 30.00 in1015.9 mb 0.00 in0.0 mm 0.00 in0.0 mm 0.45 in11.4 mm
05:15 PM 42.4°F5.8°C 38.8°F3.8°C 87% Calm Calm 3.1 mph5.0 kmh 30.00 in1015.9 mb 0.00 in0.0 mm 0.00 in0.0 mm 0.45 in11.4 mm
05:00 PM 42.6°F5.9°C 38.7°F3.7°C 86% 0.7 mph W1.1 kmh W 5.4 mph8.7 kmh 30.00 in1015.9 mb 0.00 in0.0 mm 0.00 in0.0 mm 0.45 in11.4 mm
04:45 PM 42.6°F5.9°C 38.7°F3.7°C 86% 3.1 mph W5.0 kmh W 5.4 mph8.7 kmh 29.99 in1015.6 mb 0.00 in0.0 mm 0.00 in0.0 mm 0.45 in11.4 mm
04:30 PM 42.8°F6.0°C 38.3°F3.5°C 84% 2.2 mph NW3.5 kmh NW 3.8 mph6.1 kmh 29.99 in1015.6 mb 0.00 in0.0 mm 0.00 in0.0 mm 0.45 in11.4 mm
04:15 PM 43.0°F6.1°C 38.5°F3.6°C 84% 0.7 mph NW1.1 kmh NW 2.2 mph3.5 kmh 29.98 in1015.2 mb 0.00 in0.0 mm 0.00 in0.0 mm 0.45 in11.4 mm
04:00 PM 43.0°F6.1°C 38.8°F3.8°C 85% 1.6 mph NNW2.6 kmh NNW 3.8 mph6.1 kmh 29.98 in1015.2 mb 0.00 in0.0 mm 0.00 in0.0 mm 0.45 in11.4 mm
03:45 PM 42.8°F6.0°C 38.9°F3.8°C 86% 3.8 mph NNW6.1 kmh NNW 5.4 mph8.7 kmh 29.97 in1014.9 mb 0.00 in0.0 mm 0.00 in0.0 mm 0.45 in11.4 mm
03:30 PM 42.8°F6.0°C 39.2°F4.0°C 87% 0.7 mph N1.1 kmh N 6.0 mph9.7 kmh 29.96 in1014.6 mb 0.00 in0.0 mm 0.00 in0.0 mm 0.45 in11.4 mm
03:15 PM 42.3°F5.7°C 39.0°F3.9°C 88% 1.6 mph NNW2.6 kmh NNW 5.4 mph8.7 kmh 29.96 in1014.6 mb 0.00 in0.0 mm 0.00 in0.0 mm 0.45 in11.4 mm
03:00 PM 42.1°F5.6°C 39.1°F3.9°C 89% 1.6 mph NNW2.6 kmh NNW 6.9 mph11.1 kmh 29.95 in1014.2 mb 0.00 in0.0 mm 0.00 in0.0 mm 0.45 in11.4 mm
02:45 PM 42.3°F5.7°C 39.5°F4.2°C 90% 1.6 mph NNW2.6 kmh NNW 4.5 mph7.2 kmh 29.95 in1014.2 mb 0.00 in0.0 mm 0.00 in0.0 mm 0.45 in11.4 mm
02:30 PM 41.9°F5.5°C 39.5°F4.2°C 91% 2.2 mph NNW3.5 kmh NNW 6.9 mph11.1 kmh 29.95 in1014.2 mb 0.00 in0.0 mm 0.00 in0.0 mm 0.45 in11.4 mm
02:15 PM 42.1°F5.6°C 39.6°F4.2°C 91% 0.7 mph NW1.1 kmh NW 3.8 mph6.1 kmh 29.95 in1014.2 mb 0.00 in0.0 mm 0.00 in0.0 mm 0.45 in11.4 mm
02:00 PM 41.9°F5.5°C 39.5°F4.2°C 91% Calm Calm 6.0 mph9.7 kmh 29.94 in1013.9 mb 0.00 in0.0 mm 0.00 in0.0 mm 0.45 in11.4 mm
01:45 PM 41.9°F5.5°C 39.5°F4.2°C 91% 1.6 mph NNW2.6 kmh NNW 6.0 mph9.7 kmh 29.94 in1013.9 mb 0.00 in0.0 mm 0.00 in0.0 mm 0.45 in11.4 mm
01:30 PM 41.9°F5.5°C 39.5°F4.2°C 91% 1.6 mph NNW2.6 kmh NNW 5.4 mph8.7 kmh 29.93 in1013.5 mb 0.00 in0.0 mm 0.00 in0.0 mm 0.45 in11.4 mm
01:15 PM 41.5°F5.3°C 39.1°F3.9°C 91% Calm Calm 3.8 mph6.1 kmh 29.94 in1013.9 mb 0.00 in0.0 mm 0.00 in0.0 mm 0.45 in11.4 mm
01:00 PM 41.5°F5.3°C 39.1°F3.9°C 91% 0.7 mph NW1.1 kmh NW 3.1 mph5.0 kmh 29.95 in1014.2 mb 0.00 in0.0 mm 0.00 in0.0 mm 0.45 in11.4 mm
12:45 PM 41.5°F5.3°C 38.8°F3.8°C 90% Calm Calm 2.2 mph3.5 kmh 29.95 in1014.2 mb 0.00 in0.0 mm 0.00 in0.0 mm 0.45 in11.4 mm
12:30 PM 41.4°F5.2°C 38.6°F3.7°C 90% Calm Calm 5.4 mph8.7 kmh 29.95 in1014.2 mb 0.00 in0.0 mm 0.00 in0.0 mm 0.45 in11.4 mm
12:15 PM 41.5°F5.3°C 38.8°F3.8°C 90% 1.6 mph N2.6 kmh N 6.0 mph9.7 kmh 29.96 in1014.6 mb 0.00 in0.0 mm 0.00 in0.0 mm 0.45 in11.4 mm
12:00 PM 41.7°F5.4°C 39.3°F4.1°C 91% 0.7 mph NNW1.1 kmh NNW 4.5 mph7.2 kmh 29.96 in1014.6 mb 0.01 in0.3 mm 0.00 in0.0 mm 0.45 in11.4 mm
11:45 AM 41.9°F5.5°C 39.5°F4.2°C 91% 2.2 mph N3.5 kmh N 3.8 mph6.1 kmh 29.95 in1014.2 mb 0.01 in0.3 mm 0.00 in0.0 mm 0.45 in11.4 mm
11:30 AM 41.7°F5.4°C 39.3°F4.1°C 91% Calm Calm 3.8 mph6.1 kmh 29.95 in1014.2 mb 0.01 in0.3 mm 0.00 in0.0 mm 0.45 in11.4 mm
11:15 AM 41.9°F5.5°C 39.5°F4.2°C 91% Calm Calm 3.1 mph5.0 kmh 29.96 in1014.6 mb 0.01 in0.3 mm 0.04 in1.0 mm 0.45 in11.4 mm
11:00 AM 41.7°F5.4°C 39.3°F4.1°C 91% 0.7 mph NNE1.1 kmh NNE 3.1 mph5.0 kmh 29.95 in1014.2 mb 0.00 in0.0 mm 0.00 in0.0 mm 0.43 in10.9 mm
10:45 AM 41.7°F5.4°C 39.3°F4.1°C 91% 0.7 mph NNE1.1 kmh NNE 3.1 mph5.0 kmh 29.96 in1014.6 mb 0.00 in0.0 mm 0.00 in0.0 mm 0.43 in10.9 mm
10:30 AM 41.5°F5.3°C 39.1°F3.9°C 91% Calm Calm 6.0 mph9.7 kmh 29.95 in1014.2 mb 0.00 in0.0 mm 0.00 in0.0 mm 0.43 in10.9 mm
10:15 AM 41.4°F5.2°C 38.9°F3.8°C 91% 0.7 mph NE1.1 kmh NE 4.5 mph7.2 kmh 29.96 in1014.6 mb 0.00 in0.0 mm 0.00 in0.0 mm 0.43 in10.9 mm
10:00 AM 41.2°F5.1°C 38.8°F3.8°C 91% 1.6 mph NE2.6 kmh NE 4.5 mph7.2 kmh 29.96 in1014.6 mb 0.00 in0.0 mm 0.00 in0.0 mm 0.43 in10.9 mm
09:45 AM 41.2°F5.1°C 38.8°F3.8°C 91% 1.6 mph N2.6 kmh N 3.8 mph6.1 kmh 29.95 in1014.2 mb 0.01 in0.3 mm 0.00 in0.0 mm 0.43 in10.9 mm
09:30 AM 41.2°F5.1°C 38.8°F3.8°C 91% 2.2 mph NNE3.5 kmh NNE 6.9 mph11.1 kmh 29.95 in1014.2 mb 0.03 in0.8 mm 0.00 in0.0 mm 0.43 in10.9 mm
09:15 AM 41.2°F5.1°C 38.8°F3.8°C 91% 2.2 mph NE3.5 kmh NE 5.4 mph8.7 kmh 29.94 in1013.9 mb 0.03 in0.8 mm 0.00 in0.0 mm 0.43 in10.9 mm
09:00 AM 41.0°F5.0°C 38.6°F3.7°C 91% Calm Calm 5.4 mph8.7 kmh 29.94 in1013.9 mb 0.03 in0.8 mm 0.00 in0.0 mm 0.43 in10.9 mm
08:45 AM 41.0°F5.0°C 38.6°F3.7°C 91% Calm Calm 4.5 mph7.2 kmh 29.95 in1014.2 mb 0.03 in0.8 mm 0.00 in0.0 mm 0.41 in10.4 mm
08:30 AM 41.0°F5.0°C 38.6°F3.7°C 91% 0.7 mph NNE1.1 kmh NNE 6.0 mph9.7 kmh 29.95 in1014.2 mb 0.06 in1.5 mm 0.00 in0.0 mm 0.40 in10.2 mm
08:15 AM 41.0°F5.0°C 38.6°F3.7°C 91% 0.7 mph NNE1.1 kmh NNE 6.9 mph11.1 kmh 29.95 in1014.2 mb 0.07 in1.8 mm 0.00 in0.0 mm 0.40 in10.2 mm
08:00 AM 41.0°F5.0°C 38.6°F3.7°C 91% Calm Calm 6.0 mph9.7 kmh 29.95 in1014.2 mb 0.08 in2.0 mm 0.01 in0.3 mm 0.40 in10.2 mm
07:45 AM 41.2°F5.1°C 38.8°F3.8°C 91% 1.6 mph NE2.6 kmh NE 4.5 mph7.2 kmh 29.93 in1013.5 mb 0.07 in1.8 mm 0.00 in0.0 mm 0.36 in9.1 mm
07:30 AM 41.2°F5.1°C 38.8°F3.8°C 91% 0.7 mph NE1.1 kmh NE 3.1 mph5.0 kmh 29.93 in1013.5 mb 0.07 in1.8 mm 0.00 in0.0 mm 0.35 in8.9 mm
07:15 AM 41.4°F5.2°C 38.9°F3.8°C 91% 0.7 mph NNE1.1 kmh NNE 3.1 mph5.0 kmh 29.93 in1013.5 mb 0.07 in1.8 mm 0.00 in0.0 mm 0.33 in8.4 mm
07:00 AM 41.4°F5.2°C 38.9°F3.8°C 91% 0.7 mph NE1.1 kmh NE 4.5 mph7.2 kmh 29.94 in1013.9 mb 0.07 in1.8 mm 0.00 in0.0 mm 0.31 in7.9 mm
06:45 AM 41.4°F5.2°C 38.9°F3.8°C 91% Calm Calm 3.8 mph6.1 kmh 29.94 in1013.9 mb 0.07 in1.8 mm 0.00 in0.0 mm 0.30 in7.6 mm
06:30 AM 41.4°F5.2°C 38.9°F3.8°C 91% 0.7 mph NE1.1 kmh NE 3.1 mph5.0 kmh 29.93 in1013.5 mb 0.07 in1.8 mm 0.00 in0.0 mm 0.28 in7.1 mm
06:15 AM 41.5°F5.3°C 39.1°F3.9°C 91% 0.7 mph ENE1.1 kmh ENE 3.1 mph5.0 kmh 29.94 in1013.9 mb 0.07 in1.8 mm 0.04 in1.0 mm 0.26 in6.6 mm
06:00 AM 41.5°F5.3°C 39.1°F3.9°C 91% 0.7 mph NE1.1 kmh NE 11.4 mph18.3 kmh 29.93 in1013.5 mb 0.06 in1.5 mm 0.04 in1.0 mm 0.25 in6.4 mm
05:45 AM 41.5°F5.3°C 39.1°F3.9°C 91% 1.6 mph NE2.6 kmh NE 4.5 mph7.2 kmh 29.93 in1013.5 mb 0.03 in0.8 mm 0.00 in0.0 mm 0.21 in5.3 mm
05:30 AM 41.7°F5.4°C 39.3°F4.1°C 91% 1.6 mph ENE2.6 kmh ENE 3.8 mph6.1 kmh 29.93 in1013.5 mb 0.03 in0.8 mm 0.00 in0.0 mm 0.21 in5.3 mm
05:15 AM 41.9°F5.5°C 39.5°F4.2°C 91% 0.7 mph ENE1.1 kmh ENE 2.2 mph3.5 kmh 29.93 in1013.5 mb 0.03 in0.8 mm 0.00 in0.0 mm 0.20 in5.1 mm
05:00 AM 42.1°F5.6°C 39.6°F4.2°C 91% Calm Calm 3.1 mph5.0 kmh 29.93 in1013.5 mb 0.03 in0.8 mm 0.00 in0.0 mm 0.20 in5.1 mm
04:45 AM 42.3°F5.7°C 39.8°F4.3°C 91% 1.6 mph NE2.6 kmh NE 3.8 mph6.1 kmh 29.93 in1013.5 mb 0.03 in0.8 mm 0.00 in0.0 mm 0.18 in4.6 mm
04:30 AM 42.3°F5.7°C 39.8°F4.3°C 91% Calm Calm 5.4 mph8.7 kmh 29.93 in1013.5 mb 0.06 in1.5 mm 0.00 in0.0 mm 0.18 in4.6 mm
04:15 AM 42.4°F5.8°C 40.0°F4.4°C 91% 2.2 mph NE3.5 kmh NE 4.5 mph7.2 kmh 29.93 in1013.5 mb 0.06 in1.5 mm 0.00 in0.0 mm 0.17 in4.3 mm
04:00 AM 42.6°F5.9°C 40.2°F4.6°C 91% 1.6 mph NE2.6 kmh NE 5.4 mph8.7 kmh 29.93 in1013.5 mb 0.08 in2.0 mm 0.00 in0.0 mm 0.17 in4.3 mm
03:45 AM 42.6°F5.9°C 40.2°F4.6°C 91% 0.7 mph NE1.1 kmh NE 6.0 mph9.7 kmh 29.94 in1013.9 mb 0.08 in2.0 mm 0.04 in1.0 mm 0.15 in3.8 mm
03:30 AM 42.8°F6.0°C 40.1°F4.5°C 90% 0.7 mph ENE1.1 kmh ENE 4.5 mph7.2 kmh 29.94 in1013.9 mb 0.07 in1.8 mm 0.00 in0.0 mm 0.13 in3.3 mm
03:15 AM 42.8°F6.0°C 40.1°F4.5°C 90% 1.6 mph NE2.6 kmh NE 5.4 mph8.7 kmh 29.94 in1013.9 mb 0.07 in1.8 mm 0.16 in4.1 mm 0.12 in3.0 mm
03:00 AM 43.0°F6.1°C 40.2°F4.6°C 90% 1.6 mph NE2.6 kmh NE 5.4 mph8.7 kmh 29.95 in1014.2 mb 0.03 in0.8 mm 0.00 in0.0 mm 0.08 in2.0 mm
02:45 AM 43.0°F6.1°C 40.2°F4.6°C 90% 0.7 mph NE1.1 kmh NE 5.4 mph8.7 kmh 29.95 in1014.2 mb 0.03 in0.8 mm 0.08 in2.0 mm 0.07 in1.8 mm
02:30 AM 43.0°F6.1°C 40.2°F4.6°C 90% 2.2 mph NNE3.5 kmh NNE 6.0 mph9.7 kmh 29.95 in1014.2 mb 0.01 in0.3 mm 0.00 in0.0 mm 0.05 in1.3 mm
02:15 AM 43.0°F6.1°C 40.2°F4.6°C 90% Calm Calm 3.1 mph5.0 kmh 29.95 in1014.2 mb 0.03 in0.8 mm 0.00 in0.0 mm 0.05 in1.3 mm
02:00 AM 43.2°F6.2°C 40.4°F4.7°C 90% Calm Calm 6.0 mph9.7 kmh 29.95 in1014.2 mb 0.03 in0.8 mm 0.00 in0.0 mm 0.05 in1.3 mm
01:45 AM 43.2°F6.2°C 40.4°F4.7°C 90% 0.7 mph NNE1.1 kmh NNE 4.5 mph7.2 kmh 29.94 in1013.9 mb 0.03 in0.8 mm 0.08 in2.0 mm 0.03 in0.8 mm
01:30 AM 43.5°F6.4°C 40.8°F4.9°C 90% Calm Calm 6.0 mph9.7 kmh 29.95 in1014.2 mb 0.01 in0.3 mm 0.00 in0.0 mm 0.02 in0.5 mm
01:15 AM 43.5°F6.4°C 40.8°F4.9°C 90% Calm Calm 3.1 mph5.0 kmh 29.94 in1013.9 mb 0.01 in0.3 mm 0.00 in0.0 mm 0.02 in0.5 mm
01:00 AM 43.7°F6.5°C 41.0°F5.0°C 90% Calm Calm 3.8 mph6.1 kmh 29.93 in1013.5 mb 0.01 in0.3 mm 0.00 in0.0 mm 0.02 in0.5 mm
12:45 AM 43.9°F6.6°C 41.1°F5.1°C 90% Calm Calm 3.1 mph5.0 kmh 29.94 in1013.9 mb 0.01 in0.3 mm 0.00 in0.0 mm 0.10 in2.5 mm
12:30 AM 44.1°F6.7°C 41.3°F5.2°C 90% 0.7 mph NE1.1 kmh NE 3.8 mph6.1 kmh 29.94 in1013.9 mb 0.06 in1.5 mm 0.00 in0.0 mm 0.10 in2.5 mm
12:15 AM 44.2°F6.8°C 41.5°F5.3°C 90% Calm Calm 6.0 mph9.7 kmh 29.95 in1014.2 mb 0.08 in2.0 mm 0.00 in0.0 mm 0.10 in2.5 mm
12:00 AM 44.4°F6.9°C 41.7°F5.4°C 90% Calm Calm 3.8 mph6.1 kmh 29.95 in1014.2 mb 0.10 in2.5 mm 0.00 in0.0 mm 0.10 in2.5 mm